Time;durP1;ratioP1;P1;durP2;ratioP2;P2;SDS_P1;SDS_P2;PMS_P1;PMS_P2;Temp;Humidity;BMP_temperature;BMP_pressure;BME280_temperature;BME280_humidity;BME280_pressure;Samples;Min_cycle;Max_cycle;Signal;HPM_P1;HPM_P2
2022/07/22 00:01:47;;;;;;;20.10;10.77;;;;;;;14.16;100.00;101964.59;10403104;28;20505;-77
2022/07/22 00:06:48;;;;;;;15.40;7.97;;;;;;;14.14;100.00;101963.63;10382525;28;20034;-76
2022/07/22 00:11:48;;;;;;;23.67;9.27;;;;;;;14.15;100.00;101967.13;10377022;28;20041;-77
2022/07/22 00:16:49;;;;;;;26.73;10.02;;;;;;;14.14;100.00;101967.97;10404091;28;20029;-77
2022/07/22 00:21:50;;;;;;;21.48;10.30;;;;;;;14.12;100.00;101965.25;10373253;28;20490;-77
2022/07/22 00:26:51;;;;;;;18.80;9.70;;;;;;;14.15;100.00;101964.50;10345125;28;20046;-76
2022/07/22 00:31:51;;;;;;;19.60;11.43;;;;;;;14.14;100.00;101963.63;10381539;28;20176;-76
2022/07/22 00:36:52;;;;;;;24.45;12.48;;;;;;;14.12;100.00;101965.25;10362609;28;20044;-76
2022/07/22 00:41:52;;;;;;;30.75;11.57;;;;;;;14.12;100.00;101962.63;10340989;28;20069;-76
2022/07/22 00:46:53;;;;;;;18.83;10.68;;;;;;;14.13;100.00;101960.88;10384770;28;20485;-76
2022/07/22 00:51:53;;;;;;;18.67;11.95;;;;;;;14.07;100.00;101948.34;10372870;28;20049;-77
2022/07/22 00:56:55;;;;;;;23.02;11.70;;;;;;;14.08;100.00;101951.03;10348710;28;20396;-77
2022/07/22 01:01:55;;;;;;;31.77;12.60;;;;;;;14.06;100.00;101949.16;10371582;28;20050;-77
2022/07/22 01:06:56;;;;;;;19.00;11.18;;;;;;;14.06;100.00;101946.53;10345507;28;21403;-76
2022/07/22 01:11:56;;;;;;;20.10;12.40;;;;;;;14.04;100.00;101943.81;10339626;28;20464;-76
2022/07/22 01:16:57;;;;;;;33.63;12.70;;;;;;;14.03;100.00;101942.00;10401812;28;20036;-76
2022/07/22 01:21:57;;;;;;;24.38;11.55;;;;;;;14.05;100.00;101945.59;10372812;28;20482;-76
2022/07/22 01:26:58;;;;;;;20.77;11.60;;;;;;;14.05;100.00;101939.47;10343884;28;20045;-76
2022/07/22 01:31:59;;;;;;;17.25;11.05;;;;;;;14.01;100.00;101935.75;10352928;28;20401;-76
2022/07/22 01:36:59;;;;;;;23.38;12.88;;;;;;;14.00;100.00;101935.69;10383481;28;20067;-76
2022/07/22 01:42:00;;;;;;;28.75;12.93;;;;;;;13.97;100.00;101935.53;10388351;28;20037;-76
2022/07/22 01:47:00;;;;;;;23.08;10.98;;;;;;;13.97;100.00;101936.41;10342385;28;20125;-76
2022/07/22 01:52:02;;;;;;;21.10;11.32;;;;;;;13.95;100.00;101944.25;10372320;28;20041;-76
2022/07/22 01:57:03;;;;;;;23.60;11.07;;;;;;;13.96;100.00;101945.13;10383747;28;20497;-76
2022/07/22 02:02:03;;;;;;;21.65;11.32;;;;;;;13.94;100.00;101941.53;10355429;28;20041;-76
2022/07/22 02:07:04;;;;;;;22.27;13.43;;;;;;;13.91;100.00;101946.63;10342263;28;20054;-76
2022/07/22 02:12:05;;;;;;;21.73;11.55;;;;;;;13.90;100.00;101942.19;10336540;28;20041;-76
2022/07/22 02:17:05;;;;;;;25.35;11.88;;;;;;;13.87;100.00;101940.31;10390415;28;20038;-76
2022/07/22 02:22:06;;;;;;;23.80;12.75;;;;;;;13.86;100.00;101942.88;10352657;28;20092;-75
2022/07/22 02:27:06;;;;;;;29.88;12.52;;;;;;;13.82;100.00;101946.16;10366886;28;20049;-76
2022/07/22 02:32:07;;;;;;;25.73;12.85;;;;;;;13.79;100.00;101947.81;10379541;28;20562;-76
2022/07/22 02:37:07;;;;;;;25.65;12.40;;;;;;;13.79;100.00;101942.53;10363866;28;20418;-76
2022/07/22 02:42:08;;;;;;;20.00;11.35;;;;;;;13.78;100.00;101934.59;10382053;28;20128;-76
2022/07/22 02:47:09;;;;;;;26.65;13.32;;;;;;;13.76;100.00;101931.88;10390441;28;20037;-76
2022/07/22 02:52:09;;;;;;;23.23;12.32;;;;;;;13.79;100.00;101928.50;10400090;28;20132;-76
2022/07/22 02:57:10;;;;;;;20.98;11.98;;;;;;;13.76;100.00;101926.59;10375560;28;20102;-76
2022/07/22 03:02:10;;;;;;;25.98;12.48;;;;;;;13.75;100.00;101916.91;10325767;28;20065;-74
2022/07/22 03:07:11;;;;;;;24.10;11.90;;;;;;;13.76;100.00;101907.31;10341795;28;20069;-75
2022/07/22 03:12:11;;;;;;;19.90;12.38;;;;;;;13.72;100.00;101908.84;10365532;28;20038;-76
2022/07/22 03:17:12;;;;;;;20.83;10.45;;;;;;;13.74;100.00;101914.22;10366320;28;20537;-76
2022/07/22 03:22:12;;;;;;;20.00;12.32;;;;;;;13.76;100.00;101916.09;10343048;28;20038;-76
2022/07/22 03:27:13;;;;;;;18.60;12.02;;;;;;;13.73;100.00;101915.03;10347781;28;20536;-76
2022/07/22 03:32:13;;;;;;;20.35;10.85;;;;;;;13.74;100.00;101911.59;10365902;28;20046;-76
2022/07/22 03:37:14;;;;;;;25.58;12.13;;;;;;;13.75;100.00;101901.13;10347951;28;20042;-76
2022/07/22 03:42:14;;;;;;;23.20;13.02;;;;;;;13.73;100.00;101900.13;10391218;28;20125;-76
2022/07/22 03:47:19;;;;;;;21.38;11.95;;;;;;;13.73;100.00;101899.25;10371335;28;20503;-77
2022/07/22 03:52:19;;;;;;;27.52;12.60;;;;;;;13.71;100.00;101900.91;10360077;28;20398;-76
2022/07/22 03:57:20;;;;;;;22.15;12.10;;;;;;;13.73;100.00;101904.50;10347336;28;20049;-76
2022/07/22 04:02:21;;;;;;;22.33;11.23;;;;;;;13.76;100.00;101899.41;10357791;28;20041;-76
2022/07/22 04:07:21;;;;;;;24.77;14.95;;;;;;;13.78;100.00;101903.03;10365119;28;20145;-76
2022/07/22 04:12:22;;;;;;;30.05;12.98;;;;;;;13.80;100.00;101915.41;10348131;28;20137;-76
2022/07/22 04:17:22;;;;;;;22.70;13.52;;;;;;;13.80;100.00;101917.16;10365703;28;20120;-76
2022/07/22 04:22:23;;;;;;;33.58;13.57;;;;;;;13.79;100.00;101924.13;10385393;28;20041;-76
2022/07/22 04:27:24;;;;;;;20.58;13.25;;;;;;;13.80;100.00;101918.03;10364784;28;20053;-75
2022/07/22 04:32:24;;;;;;;25.42;13.27;;;;;;;13.82;100.00;101922.47;10366874;28;20523;-75
2022/07/22 04:37:24;;;;;;;22.38;12.43;;;;;;;13.83;100.00;101926.91;10403960;28;20041;-77
2022/07/22 04:42:25;;;;;;;24.15;11.85;;;;;;;13.88;100.00;101925.44;10384838;28;20069;-75
2022/07/22 04:47:25;;;;;;;21.95;12.32;;;;;;;13.94;100.00;101931.91;10380118;28;20052;-76
2022/07/22 04:52:26;;;;;;;24.92;13.35;;;;;;;14.00;100.00;101922.53;10402681;28;20061;-75
2022/07/22 04:57:27;;;;;;;24.63;12.65;;;;;;;14.04;100.00;101920.13;10367120;28;20063;-75
2022/07/22 05:02:27;;;;;;;28.77;13.68;;;;;;;14.15;100.00;101919.75;10402009;28;20049;-75
2022/07/22 05:07:28;;;;;;;25.67;12.80;;;;;;;14.23;100.00;101913.13;10366268;28;20510;-74
2022/07/22 05:12:28;;;;;;;25.33;13.00;;;;;;;14.34;100.00;101900.50;10383346;28;20120;-75
2022/07/22 05:17:29;;;;;;;19.20;11.07;;;;;;;14.53;100.00;101902.28;10379122;28;20079;-75
2022/07/22 05:22:29;;;;;;;21.33;9.63;;;;;;;14.71;100.00;101904.03;10363226;28;20038;-77
2022/07/22 05:27:30;;;;;;;33.90;12.52;;;;;;;14.89;100.00;101893.47;10334701;28;20053;-76
2022/07/22 05:32:31;;;;;;;15.13;9.13;;;;;;;15.08;100.00;101882.94;10343906;28;20130;-76
2022/07/22 05:37:31;;;;;;;19.02;9.05;;;;;;;15.24;100.00;101878.34;10363061;28;20065;-75
2022/07/22 05:42:32;;;;;;;20.95;9.25;;;;;;;15.49;100.00;101893.50;10365022;28;20124;-75
2022/07/22 05:47:32;;;;;;;17.17;8.18;;;;;;;15.67;100.00;101890.78;10375712;28;20593;-76
2022/07/22 05:52:36;;;;;;;18.08;9.02;;;;;;;15.86;99.89;101896.84;10350210;28;20046;-78
2022/07/22 05:57:36;;;;;;;15.05;7.30;;;;;;;16.05;97.06;101890.59;10374962;28;20056;-76
2022/07/22 06:02:37;;;;;;;12.93;7.85;;;;;;;16.20;93.81;101902.66;10361940;28;20137;-77
2022/07/22 06:07:40;;;;;;;12.88;7.30;;;;;;;16.33;94.34;101898.78;10394588;28;20120;-76
2022/07/22 06:12:41;;;;;;;16.58;9.18;;;;;;;16.45;91.81;101896.63;10360949;28;20049;-77
2022/07/22 06:17:41;;;;;;;17.17;8.43;;;;;;;16.52;92.63;101901.31;10354873;28;20141;-75
2022/07/22 06:22:42;;;;;;;15.80;8.32;;;;;;;16.84;90.11;101904.31;10377143;28;20033;-75
2022/07/22 06:27:42;;;;;;;12.65;5.90;;;;;;;17.07;85.19;101906.06;10391362;28;20037;-76
2022/07/22 06:32:43;;;;;;;10.77;7.03;;;;;;;17.03;84.05;101911.22;10384989;28;20077;-77
2022/07/22 06:37:43;;;;;;;13.57;7.75;;;;;;;17.15;82.68;101901.94;10369099;28;20168;-77
2022/07/22 06:42:44;;;;;;;11.70;6.97;;;;;;;17.42;82.89;101907.34;10346806;28;20120;-77
2022/07/22 06:47:45;;;;;;;10.00;4.80;;;;;;;18.45;77.50;101911.72;10380128;28;20128;-77
2022/07/22 06:52:45;;;;;;;12.27;4.40;;;;;;;18.98;74.22;101913.34;10373826;28;20663;-77
2022/07/22 06:57:46;;;;;;;7.13;3.78;;;;;;;18.82;74.30;101901.34;10373272;28;20041;-77
2022/07/22 07:02:47;;;;;;;6.65;3.38;;;;;;;19.99;69.17;101893.97;10375403;28;20371;-79
2022/07/22 07:07:47;;;;;;;8.18;3.22;;;;;;;19.44;68.80;101884.56;10405602;28;20051;-78
2022/07/22 07:12:48;;;;;;;5.03;2.47;;;;;;;19.33;69.29;101891.34;10389957;28;20127;-78
2022/07/22 07:17:48;;;;;;;6.22;2.17;;;;;;;19.88;69.30;101885.69;10388131;28;20041;-80
2022/07/22 07:22:49;;;;;;;7.53;2.97;;;;;;;22.23;64.70;101879.00;10372344;28;20439;-78
2022/07/22 07:27:50;;;;;;;6.00;1.67;;;;;;;23.56;51.97;101873.56;10388476;28;20488;-78
2022/07/22 07:32:50;;;;;;;5.83;2.30;;;;;;;20.68;62.56;101884.06;10399733;28;20046;-77
2022/07/22 07:37:51;;;;;;;14.73;1.87;;;;;;;19.72;65.88;101874.69;10330897;28;20042;-77
2022/07/22 07:42:52;;;;;;;4.28;1.63;;;;;;;19.04;69.26;101872.84;10346955;28;20500;-78
2022/07/22 07:47:52;;;;;;;13.03;4.17;;;;;;;18.48;70.03;101864.09;10341057;28;20037;-77
2022/07/22 07:52:53;;;;;;;3.63;1.85;;;;;;;20.05;69.27;101859.56;10364032;28;20041;-77
2022/07/22 07:57:54;;;;;;;2.93;1.90;;;;;;;21.51;62.23;101865.31;10346295;28;20046;-77
2022/07/22 08:02:55;;;;;;;5.90;3.10;;;;;;;23.81;52.92;101865.78;10335954;28;20045;-78
2022/07/22 08:07:55;;;;;;;3.83;1.67;;;;;;;22.44;55.46;101864.19;10349498;28;20033;-79
2022/07/22 08:12:57;;;;;;;6.27;2.57;;;;;;;21.10;61.76;101864.56;10385147;28;20107;-79
2022/07/22 08:17:58;;;;;;;;;;;;;;;20.74;63.17;101870.00;10385712;28;20057;-80
2022/07/22 08:22:58;;;;;;;6.28;2.10;;;;;;;19.97;64.96;101877.09;10362884;28;19936;-78
2022/07/22 08:27:59;;;;;;;3.40;2.00;;;;;;;19.54;68.41;101876.84;10368145;28;20034;-79
2022/07/22 08:32:59;;;;;;;3.63;2.42;;;;;;;19.48;66.65;101878.50;10365359;28;20034;-79
2022/07/22 08:38:00;;;;;;;6.68;4.25;;;;;;;19.85;64.25;101882.97;10393208;28;20442;-78
2022/07/22 08:43:02;;;;;;;5.50;2.50;;;;;;;19.89;66.73;101877.78;10361892;28;20128;-78
2022/07/22 08:48:05;;;;;;;4.95;3.22;;;;;;;19.92;65.65;101875.22;10357110;28;20088;-78
2022/07/22 08:53:10;;;;;;;9.27;2.72;;;;;;;20.03;65.14;101863.94;10384238;28;20482;-77
2022/07/22 08:58:11;;;;;;;3.55;2.05;;;;;;;20.39;63.66;101863.03;10353873;28;20506;-78
2022/07/22 09:03:23;;;;;;;5.97;2.40;;;;;;;21.03;62.18;101859.09;10339350;28;20042;-78
2022/07/22 09:08:23;;;;;;;13.80;4.13;;;;;;;22.23;59.39;101854.13;10344171;28;20042;-78
2022/07/22 09:13:24;;;;;;;11.97;3.87;;;;;;;26.28;48.42;101843.44;10351954;28;20080;-79
2022/07/22 09:18:24;;;;;;;6.20;2.37;;;;;;;28.08;45.88;101842.38;10339646;28;20037;-79
2022/07/22 09:23:25;;;;;;;8.37;2.20;;;;;;;29.92;40.06;101846.19;10343141;28;20513;-79
2022/07/22 09:28:25;;;;;;;5.55;2.60;;;;;;;30.33;40.25;101838.25;10370876;28;20044;-80
2022/07/22 09:33:26;;;;;;;9.87;3.20;;;;;;;28.68;40.75;101839.94;10361176;28;20115;-80
2022/07/22 09:38:28;;;;;;;6.35;2.40;;;;;;;26.68;45.58;101837.94;10327228;28;20273;-79
2022/07/22 09:43:34;;;;;;;9.85;3.25;;;;;;;23.70;53.08;101838.97;10345633;28;20505;-80
2022/07/22 09:48:34;;;;;;;27.33;5.35;;;;;;;22.77;52.94;101838.00;10357662;28;20064;-79
2022/07/22 09:53:35;;;;;;;6.30;3.53;;;;;;;22.46;53.11;101832.25;10363447;28;20450;-80
2022/07/22 09:58:35;;;;;;;10.37;3.10;;;;;;;21.99;56.18;101835.09;10361633;28;20044;-79
2022/07/22 10:03:36;;;;;;;4.23;2.57;;;;;;;23.07;52.38;101829.44;10346769;28;20045;-80
2022/07/22 10:08:37;;;;;;;6.18;3.83;;;;;;;22.69;51.49;101825.44;10339369;28;20568;-78
2022/07/22 10:13:38;;;;;;;5.10;2.27;;;;;;;26.03;44.60;101807.72;10325751;28;20046;-78
2022/07/22 10:18:38;;;;;;;4.60;2.23;;;;;;;27.17;44.71;101810.84;10358533;28;20042;-79
2022/07/22 10:24:13;;;;;;;4.67;2.17;;;;;;;27.35;44.28;101817.88;10343032;28;20046;-79
2022/07/22 10:29:29;;;;;;;7.05;3.90;;;;;;;25.01;49.02;101825.50;10359440;28;20045;-81
2022/07/22 10:34:29;;;;;;;6.40;2.75;;;;;;;23.40;53.16;101824.47;10354442;28;20044;-79
2022/07/22 10:39:30;;;;;;;4.43;3.17;;;;;;;23.11;54.90;101827.69;10373461;28;20501;-79
2022/07/22 10:44:46;;;;;;;8.67;3.93;;;;;;;23.16;56.11;101824.19;10382756;28;20172;-79
2022/07/22 10:49:47;;;;;;;5.63;3.20;;;;;;;23.72;52.78;101816.72;10388096;28;20038;-80
2022/07/22 10:55:26;;;;;;;7.23;3.10;;;;;;;24.87;50.63;101808.50;10386871;28;20397;-81
2022/07/22 11:00:26;;;;;;;4.97;2.80;;;;;;;25.05;48.49;101804.97;10121445;29;20048;-80
2022/07/22 11:05:29;;;;;;;6.17;2.70;;;;;;;27.65;43.89;101795.28;10350016;28;20112;-80
2022/07/22 11:10:29;;;;;;;6.10;2.95;;;;;;;30.20;38.07;101780.94;10389136;28;20443;-80
2022/07/22 11:15:30;;;;;;;7.03;1.90;;;;;;;31.00;36.44;101778.28;10386179;28;20100;-78
2022/07/22 11:20:30;;;;;;;10.30;3.67;;;;;;;30.26;35.20;101786.19;10404928;28;20397;-80
2022/07/22 11:25:31;;;;;;;5.60;3.83;;;;;;;27.75;41.07;101784.44;10347740;28;20052;-78
2022/07/22 11:30:33;;;;;;;5.67;3.43;;;;;;;26.70;44.88;101789.63;10343507;28;20044;-77
2022/07/22 11:35:33;;;;;;;4.65;3.55;;;;;;;26.48;41.68;101781.66;10381737;28;20079;-78
2022/07/22 11:40:34;;;;;;;9.47;5.67;;;;;;;25.97;46.59;101770.19;10379076;28;20192;-78
2022/07/22 11:45:34;;;;;;;7.33;4.67;;;;;;;26.32;44.28;101770.09;10357851;28;20054;-78
2022/07/22 11:50:35;;;;;;;5.37;2.83;;;;;;;27.51;41.98;101770.31;10393159;28;20501;-82
2022/07/22 11:55:35;;;;;;;8.57;3.43;;;;;;;27.57;39.21;101753.22;10371926;28;20034;-85
2022/07/22 12:00:36;;;;;;;5.87;3.17;;;;;;;26.37;41.79;101753.97;10396326;28;20525;-79
2022/07/22 12:05:36;;;;;;;6.47;3.77;;;;;;;26.15;43.90;101753.16;10370838;28;20037;-79
2022/07/22 12:10:37;;;;;;;5.40;4.13;;;;;;;25.78;43.93;101740.72;10379457;28;20404;-77
2022/07/22 12:15:37;;;;;;;4.87;2.67;;;;;;;26.95;42.91;101744.72;10384204;28;20038;-77
2022/07/22 12:20:44;;;;;;;5.93;4.27;;;;;;;26.60;42.14;101740.44;10378964;28;20410;-77
2022/07/22 12:25:58;;;;;;;169.50;126.18;;;;;;;25.87;45.08;101731.75;10396263;28;20450;-77
2022/07/22 12:30:59;;;;;;;6.35;4.43;;;;;;;25.77;45.26;101728.22;10370653;28;20038;-77
2022/07/22 12:36:00;;;;;;;5.60;3.90;;;;;;;26.76;45.09;101721.56;10366320;28;20049;-77
2022/07/22 12:41:23;;;;;;;7.57;6.00;;;;;;;26.46;45.07;101721.75;10384509;28;20354;-76
2022/07/22 12:46:24;;;;;;;7.45;3.90;;;;;;;27.88;41.43;101718.84;10378014;28;20033;-77
2022/07/22 12:51:24;;;;;;;7.07;3.47;;;;;;;28.06;38.70;101711.47;10356427;28;20037;-78
2022/07/22 12:56:25;;;;;;;5.90;3.93;;;;;;;28.18;41.26;101710.44;10367374;28;20116;-78
2022/07/22 13:01:25;;;;;;;10.07;4.63;;;;;;;27.39;38.43;101710.38;10380771;28;20037;-78
2022/07/22 13:06:26;;;;;;;5.37;3.97;;;;;;;27.65;42.94;101708.34;10401986;28;20038;-78
2022/07/22 13:11:26;;;;;;;4.77;3.60;;;;;;;27.29;40.50;101697.00;10402394;28;20083;-79
2022/07/22 13:16:27;;;;;;;9.97;4.90;;;;;;;25.91;44.62;101701.34;10387584;28;20389;-79
2022/07/22 13:21:27;;;;;;;9.13;4.60;;;;;;;26.67;42.14;101703.72;10389470;28;20053;-79
2022/07/22 13:26:28;;;;;;;16.93;10.13;;;;;;;25.61;46.40;101713.94;10373898;28;20663;-79
2022/07/22 13:31:28;;;;;;;11.10;5.07;;;;;;;26.33;45.13;101704.78;10355074;28;20075;-79
2022/07/22 13:36:32;;;;;;;54.73;39.33;;;;;;;27.18;42.58;101706.06;10369797;28;20120;-79
2022/07/22 13:41:32;;;;;;;8.52;5.43;;;;;;;27.67;41.57;101701.16;10387506;28;20037;-79
2022/07/22 13:46:36;;;;;;;6.27;4.33;;;;;;;27.08;41.16;101698.97;10404209;28;20545;-79
2022/07/22 13:51:36;;;;;;;7.65;5.72;;;;;;;27.63;40.56;101692.25;10373842;28;20057;-80
2022/07/22 13:56:37;;;;;;;14.90;8.77;;;;;;;26.76;43.95;101679.50;10368860;28;20129;-79
2022/07/22 14:01:37;;;;;;;7.37;3.97;;;;;;;27.17;44.17;101677.41;10376332;28;20067;-80
2022/07/22 14:06:38;;;;;;;5.57;3.50;;;;;;;28.43;41.44;101679.59;10399966;28;20068;-80
2022/07/22 14:11:38;;;;;;;9.50;4.87;;;;;;;28.38;41.32;101673.41;10352920;28;20120;-78
2022/07/22 14:16:39;;;;;;;7.57;4.60;;;;;;;28.81;38.80;101673.69;10374643;28;20056;-79
2022/07/22 14:21:41;;;;;;;6.77;4.27;;;;;;;29.03;37.44;101671.56;10387607;28;20061;-80
2022/07/22 14:26:42;;;;;;;7.90;4.70;;;;;;;27.64;40.09;101666.22;10372096;28;20075;-80
2022/07/22 14:31:43;;;;;;;9.03;4.37;;;;;;;26.60;42.37;101650.97;10385344;28;20061;-79
2022/07/22 14:36:43;;;;;;;14.27;5.27;;;;;;;26.92;42.26;101653.44;10352238;28;20060;-79
2022/07/22 14:41:46;;;;;;;10.87;5.37;;;;;;;26.43;43.20;101662.72;10383926;28;20069;-78
2022/07/22 14:46:46;;;;;;;11.65;4.85;;;;;;;25.69;42.65;101663.00;10383789;28;20417;-79
2022/07/22 14:51:48;;;;;;;10.07;5.60;;;;;;;24.51;48.20;101671.88;10361073;28;20049;-78
2022/07/22 14:56:49;;;;;;;10.88;5.85;;;;;;;24.38;47.56;101662.03;10390424;28;20040;-78
2022/07/22 15:01:49;;;;;;;11.50;6.27;;;;;;;24.93;48.21;101662.16;10390701;28;20380;-79
2022/07/22 15:06:50;;;;;;;9.50;5.67;;;;;;;25.95;46.17;101661.13;10405744;28;20033;-80
2022/07/22 15:11:52;;;;;;;9.65;6.43;;;;;;;27.09;43.86;101652.41;10399782;28;20444;-78
2022/07/22 15:16:52;;;;;;;;;;;;;;;26.99;44.02;101642.66;10399040;28;20045;-78
2022/07/22 15:21:53;;;;;;;6.73;5.40;;;;;;;25.69;47.59;101637.06;10406197;28;19917;-78
2022/07/22 15:26:54;;;;;;;7.20;4.88;;;;;;;25.38;48.73;101625.53;10388331;28;20056;-78
2022/07/22 15:31:54;;;;;;;13.83;5.73;;;;;;;24.89;46.67;101625.56;10372183;28;20059;-79
2022/07/22 15:36:55;;;;;;;6.80;5.10;;;;;;;24.39;47.73;101621.00;10405886;28;20036;-78
2022/07/22 15:41:55;;;;;;;8.27;4.83;;;;;;;24.30;49.26;101613.88;10405221;28;20041;-78
2022/07/22 15:46:56;;;;;;;7.70;5.33;;;;;;;24.30;48.16;101616.56;10406289;28;20061;-79
2022/07/22 15:51:56;;;;;;;9.50;5.60;;;;;;;23.88;49.54;101592.31;10405382;28;20079;-78
2022/07/22 16:02:16;;;;;;;10.15;4.85;;;;;;;23.79;51.77;101587.84;10389506;28;20128;-78
2022/07/22 16:07:17;;;;;;;10.27;4.93;;;;;;;23.94;50.78;101592.34;10387876;28;20112;-78
2022/07/22 16:12:17;;;;;;;10.23;5.70;;;;;;;23.52;51.57;101586.81;10404933;28;20068;-79
2022/07/22 16:17:18;;;;;;;9.10;5.83;;;;;;;22.98;54.88;101589.09;10404241;28;20033;-78
2022/07/22 16:22:18;;;;;;;8.90;5.93;;;;;;;23.06;55.87;101579.38;10405174;28;20086;-78
2022/07/22 16:27:19;;;;;;;11.70;6.70;;;;;;;23.34;53.64;101590.28;10386081;28;20033;-78
2022/07/22 16:32:19;;;;;;;12.03;7.10;;;;;;;23.49;52.44;101588.56;10403246;28;20099;-78
2022/07/22 16:37:22;;;;;;;7.33;4.53;;;;;;;23.25;53.90;101592.88;10403404;28;20517;-78
2022/07/22 16:42:23;;;;;;;8.07;5.53;;;;;;;23.13;52.49;101589.22;10368481;28;20049;-78
2022/07/22 16:47:23;;;;;;;12.73;5.83;;;;;;;23.12;55.96;101586.56;10385018;28;20120;-78
2022/07/22 16:52:24;;;;;;;7.63;4.53;;;;;;;23.00;56.14;101584.66;10403116;28;20040;-78
2022/07/22 16:57:24;;;;;;;7.43;4.80;;;;;;;22.86;55.01;101581.91;10386787;28;20041;-78
2022/07/22 17:02:25;;;;;;;7.43;5.57;;;;;;;22.70;57.64;101587.13;10402831;28;20072;-77
2022/07/22 17:07:25;;;;;;;11.43;5.87;;;;;;;22.47;58.97;101583.34;10401987;28;20069;-77
2022/07/22 17:12:26;;;;;;;9.00;5.93;;;;;;;22.41;57.15;101582.38;10402478;28;20029;-78
2022/07/22 17:17:28;;;;;;;13.50;5.30;;;;;;;22.33;58.98;101580.50;10384513;28;20122;-78
2022/07/22 17:22:28;;;;;;;10.23;4.93;;;;;;;22.23;57.79;101585.72;10401802;28;20542;-78
2022/07/22 17:27:29;;;;;;;11.37;6.00;;;;;;;22.22;56.04;101586.59;10384090;28;20133;-77
2022/07/22 17:32:29;;;;;;;9.97;6.13;;;;;;;21.95;58.36;101588.09;10384767;28;20374;-78
2022/07/22 17:37:30;;;;;;;6.33;3.87;;;;;;;21.75;57.80;101582.53;10401141;28;20112;-77
2022/07/22 17:42:30;;;;;;;9.98;4.68;;;;;;;21.49;61.57;101576.81;10366364;28;20052;-77
2022/07/22 17:47:31;;;;;;;6.70;5.10;;;;;;;21.31;60.96;101575.66;10384673;28;20069;-77
2022/07/22 17:52:32;;;;;;;11.40;5.13;;;;;;;21.27;59.41;101576.50;10383887;28;20037;-77
2022/07/22 17:57:33;;;;;;;6.50;3.85;;;;;;;21.03;60.63;101585.91;10382990;28;20489;-77
2022/07/22 18:02:35;;;;;;;9.73;4.63;;;;;;;20.88;62.02;101573.25;10401274;28;20535;-77
2022/07/22 18:07:36;;;;;;;7.00;4.30;;;;;;;20.81;62.55;101569.59;10400514;28;20033;-77
2022/07/22 18:12:36;;;;;;;8.13;4.60;;;;;;;20.95;60.82;101567.16;10366679;28;20037;-77
2022/07/22 18:17:37;;;;;;;8.30;4.38;;;;;;;20.84;62.71;101574.09;10382744;28;20112;-77
2022/07/22 18:22:37;;;;;;;7.85;4.05;;;;;;;20.78;62.06;101574.88;10367028;28;20466;-77
2022/07/22 18:27:38;;;;;;;9.13;3.83;;;;;;;20.62;62.25;101572.78;10366423;28;20053;-77
2022/07/22 18:32:38;;;;;;;10.20;4.13;;;;;;;20.18;64.96;101581.75;10381635;28;20047;-77
2022/07/22 18:37:39;;;;;;;8.57;4.78;;;;;;;19.83;66.75;101580.13;10399496;28;20037;-77
2022/07/22 18:42:39;;;;;;;6.30;4.07;;;;;;;19.49;67.84;101569.69;10400723;28;20060;-77
2022/07/22 18:47:40;;;;;;;10.55;4.43;;;;;;;19.52;67.74;101548.53;10349808;28;20065;-77
2022/07/22 18:52:40;;;;;;;5.57;3.22;;;;;;;19.27;70.43;101556.81;10369003;28;20112;-77
2022/07/22 18:57:41;;;;;;;5.57;3.17;;;;;;;19.07;73.72;101558.13;10389926;28;20069;-77
2022/07/22 19:02:41;;;;;;;5.05;3.75;;;;;;;18.89;73.08;101562.94;10390034;28;20440;-77
2022/07/22 19:07:42;;;;;;;5.30;3.30;;;;;;;18.73;76.65;101574.94;10407157;28;20075;-77
2022/07/22 19:12:42;;;;;;;9.40;3.42;;;;;;;18.48;77.45;101567.25;10389500;28;20048;-77
2022/07/22 19:17:43;;;;;;;9.70;3.33;;;;;;;18.26;77.27;101559.59;10373750;28;20045;-77
2022/07/22 19:22:44;;;;;;;12.88;3.90;;;;;;;18.33;76.26;101570.41;10405995;28;20091;-77
2022/07/22 19:27:44;;;;;;;7.40;4.38;;;;;;;18.20;77.23;101573.56;10372884;28;20033;-78
2022/07/22 19:32:45;;;;;;;8.45;3.97;;;;;;;17.95;79.32;101578.16;10406661;28;20124;-79
2022/07/22 19:37:45;;;;;;;7.95;3.33;;;;;;;17.72;80.60;101570.44;10406402;28;22154;-77
2022/07/22 19:42:46;;;;;;;6.63;3.10;;;;;;;17.54;81.85;101578.72;10371938;28;20048;-77
2022/07/22 19:47:46;;;;;;;5.82;3.63;;;;;;;17.43;82.90;101577.50;10405142;28;20038;-77
2022/07/22 19:52:47;;;;;;;6.32;3.40;;;;;;;17.31;84.80;101573.59;10372147;28;20049;-77
2022/07/22 19:57:47;;;;;;;10.73;3.97;;;;;;;17.22;86.05;101580.38;10387096;28;20041;-77
2022/07/22 20:02:48;;;;;;;7.47;3.83;;;;;;;17.18;89.23;101589.94;10387003;28;20042;-77
2022/07/22 20:07:48;;;;;;;6.53;3.70;;;;;;;17.08;88.12;101585.22;10384307;28;20037;-77
2022/07/22 20:12:52;;;;;;;9.73;3.03;;;;;;;16.97;87.44;101588.41;10378637;28;20070;-76
2022/07/22 20:17:53;;;;;;;8.02;3.25;;;;;;;16.93;87.89;101609.38;10380004;28;20046;-76
2022/07/22 20:22:54;;;;;;;7.13;4.28;;;;;;;16.95;91.83;101607.69;10373356;28;20034;-76
2022/07/22 20:27:55;;;;;;;10.20;5.05;;;;;;;16.92;92.58;101624.31;10397236;28;20537;-78
2022/07/22 20:32:56;;;;;;;8.68;5.68;;;;;;;16.87;91.82;101623.28;10370216;28;20107;-78
2022/07/22 20:37:56;;;;;;;6.15;3.58;;;;;;;16.82;91.24;101627.50;10369176;28;20041;-78
2022/07/22 20:43:03;;;;;;;14.40;5.97;;;;;;;16.78;91.86;101622.97;10370580;28;20042;-78
2022/07/22 20:48:04;;;;;;;8.10;4.47;;;;;;;16.70;92.04;101620.06;10386871;28;20030;-78
2022/07/22 20:53:08;;;;;;;6.65;4.53;;;;;;;16.68;90.90;101622.66;10403257;28;20462;-78
2022/07/22 20:58:09;;;;;;;11.80;4.95;;;;;;;16.67;90.90;101622.63;10378574;28;20462;-79
2022/07/22 21:03:10;;;;;;;10.18;5.10;;;;;;;16.67;91.26;101623.50;10345824;28;20034;-79
2022/07/22 21:08:12;;;;;;;8.35;5.05;;;;;;;16.71;91.23;101640.38;10362842;28;20115;-78
2022/07/22 21:13:12;;;;;;;10.10;4.50;;;;;;;16.70;91.72;101651.78;10358584;28;20431;-78
2022/07/22 21:18:13;;;;;;;7.18;3.60;;;;;;;16.66;91.76;101644.59;10353136;28;20030;-78
2022/07/22 21:23:13;;;;;;;15.60;6.03;;;;;;;16.63;90.71;101655.06;10327579;28;20080;-78
2022/07/22 21:28:14;;;;;;;7.68;3.80;;;;;;;16.64;91.37;101664.78;10377781;28;20482;-79
2022/07/22 21:33:15;;;;;;;9.13;4.82;;;;;;;16.57;94.37;101671.59;10344327;28;20046;-78
2022/07/22 21:38:15;;;;;;;7.07;4.53;;;;;;;16.47;95.52;101688.88;10355521;28;20132;-79
2022/07/22 21:43:16;;;;;;;6.25;4.25;;;;;;;16.38;94.04;101662.09;10367707;28;20061;-79
2022/07/22 21:48:20;;;;;;;8.88;4.55;;;;;;;16.25;93.46;101647.53;10364834;28;20037;-79
2022/07/22 21:53:20;;;;;;;8.60;4.57;;;;;;;16.09;93.65;101644.34;10402095;28;20113;-78
2022/07/22 21:58:21;;;;;;;8.55;4.95;;;;;;;15.95;94.08;101619.16;10370834;28;20119;-77
2022/07/22 22:03:21;;;;;;;11.55;5.55;;;;;;;15.86;95.62;101622.31;10326477;28;20054;-79
2022/07/22 22:08:22;;;;;;;13.93;7.85;;;;;;;15.83;98.68;101631.00;10338009;28;22195;-77
2022/07/22 22:13:23;;;;;;;9.20;6.28;;;;;;;15.83;98.92;101632.78;10382330;28;20036;-77
2022/07/22 22:18:23;;;;;;;12.18;7.28;;;;;;;15.85;99.66;101645.16;10353691;28;20041;-77
2022/07/22 22:23:24;;;;;;;13.55;7.88;;;;;;;15.68;100.00;101643.63;10359559;28;20121;-77
2022/07/22 22:28:24;;;;;;;14.45;8.40;;;;;;;15.47;100.00;101643.69;10356346;28;20044;-77
2022/07/22 22:33:25;;;;;;;12.27;7.93;;;;;;;15.35;100.00;101663.44;10380177;28;20036;-77
2022/07/22 22:38:25;;;;;;;14.75;8.40;;;;;;;15.26;100.00;101661.31;10342332;28;20392;-78
2022/07/22 22:43:26;;;;;;;14.35;8.25;;;;;;;15.20;100.00;101671.63;10356140;28;20071;-78
2022/07/22 22:48:26;;;;;;;13.82;11.05;;;;;;;15.21;100.00;101660.22;10391332;28;20087;-77
2022/07/22 22:53:27;;;;;;;17.48;9.27;;;;;;;15.19;100.00;101668.94;10362249;28;20046;-76